Time;durP1;ratioP1;P1;durP2;ratioP2;P2;SDS_P1;SDS_P2;PMS_P1;PMS_P2;Temp;Humidity;BMP_temperature;BMP_pressure;BME280_temperature;BME280_humidity;BME280_pressure;Samples;Min_cycle;Max_cycle;Signal;HPM_P1;HPM_P2
2022/03/15 00:00:45;;;;;;;;;15.67;10.67;;;;;10.96;61.39;102256.59;5014759;28;45430;-69
2022/03/15 00:03:11;;;;;;;;;11.00;10.00;;;;;10.97;61.59;102242.00;5025211;28;45462;-69
2022/03/15 00:05:36;;;;;;;;;11.00;11.00;;;;;11.03;61.31;102244.28;5016669;28;48264;-69
2022/03/15 00:08:02;;;;;;;;;11.33;11.33;;;;;11.02;61.40;102239.81;5024890;28;45467;-69
2022/03/15 00:10:29;;;;;;;;;13.67;10.33;;;;;11.04;60.63;102237.84;5016621;28;45342;-69
2022/03/15 00:12:56;;;;;;;;;13.33;13.33;;;;;11.05;61.02;102239.56;5025206;28;45351;-69
2022/03/15 00:15:23;;;;;;;;;11.33;9.00;;;;;11.05;60.38;102229.56;5025179;28;47233;-69
2022/03/15 00:17:48;;;;;;;;;13.67;11.67;;;;;11.04;60.60;102221.50;5023289;28;45453;-69
2022/03/15 00:20:18;;;;;;;;;11.33;10.67;;;;;11.09;60.47;102228.38;5029589;28;45397;-69
2022/03/15 00:22:44;;;;;;;;;14.00;13.33;;;;;11.09;60.11;102222.06;5020864;28;45546;-69
2022/03/15 00:25:11;;;;;;;;;14.67;12.00;;;;;11.10;61.06;102227.38;5013943;28;45454;-69
2022/03/15 00:27:37;;;;;;;;;11.00;11.00;;;;;11.05;60.52;102215.09;5018680;28;45293;-69
2022/03/15 00:30:05;;;;;;;;;11.00;10.00;;;;;10.98;60.50;102201.09;5014169;28;45293;-69
2022/03/15 00:32:32;;;;;;;;;10.67;10.67;;;;;11.07;60.47;102215.84;5021957;28;45342;-69
2022/03/15 00:34:58;;;;;;;;;13.00;10.33;;;;;11.01;60.08;102208.16;5019012;28;46231;-69
2022/03/15 00:37:23;;;;;;;;;13.67;13.67;;;;;11.01;60.58;102225.34;5021301;28;45193;-69
2022/03/15 00:39:49;;;;;;;;;11.67;11.67;;;;;10.93;61.00;102220.50;5020591;28;45276;-69
2022/03/15 00:42:15;;;;;;;;;11.67;10.00;;;;;10.88;61.54;102211.78;5036834;28;45352;-69
2022/03/15 00:44:40;;;;;;;;;13.33;9.33;;;;;10.86;61.01;102219.22;5021096;28;46498;-69
2022/03/15 00:47:06;;;;;;;;;15.33;12.00;;;;;10.85;61.45;102217.47;5019885;28;45749;-69
2022/03/15 00:49:32;;;;;;;;;15.00;12.00;;;;;10.76;62.08;102210.00;5023665;28;45444;-70
2022/03/15 00:51:58;;;;;;;;;15.00;12.33;;;;;10.77;62.97;102216.28;5028112;28;45481;-69
2022/03/15 00:54:23;;;;;;;;;15.00;12.00;;;;;10.74;62.36;102211.94;5022775;28;47404;-69
2022/03/15 00:56:50;;;;;;;;;10.00;8.67;;;;;10.78;61.93;102218.03;5023554;28;45327;-69
2022/03/15 00:59:16;;;;;;;;;19.33;12.67;;;;;10.74;62.50;102208.38;5015420;28;45411;-69
2022/03/15 01:01:41;;;;;;;;;16.67;14.67;;;;;10.68;62.95;102204.25;5025339;28;45396;-69
2022/03/15 01:04:07;;;;;;;;;17.75;15.00;;;;;10.63;63.29;102201.00;5016388;28;46134;-69
2022/03/15 01:06:32;;;;;;;;;14.67;12.33;;;;;10.66;62.95;102200.81;5024745;28;45311;-69
2022/03/15 01:08:58;;;;;;;;;13.33;11.33;;;;;10.68;62.57;102193.38;5017536;28;45383;-69
2022/03/15 01:11:23;;;;;;;;;9.67;8.00;;;;;10.70;62.20;102196.84;5023035;28;45327;-69
2022/03/15 01:13:49;;;;;;;;;15.00;11.00;;;;;10.71;62.78;102192.28;5018401;28;48677;-69
2022/03/15 01:16:14;;;;;;;;;17.00;12.00;;;;;10.71;61.70;102182.28;5021104;28;45321;-69
2022/03/15 01:18:40;;;;;;;;;9.00;9.00;;;;;10.76;62.15;102184.66;5019526;28;45519;-70
2022/03/15 01:21:06;;;;;;;;;19.00;12.00;;;;;10.77;62.37;102181.81;5008774;28;45351;-69
2022/03/15 01:23:31;;;;;;;;;13.00;12.00;;;;;10.82;61.91;102184.19;5014064;28;45402;-69
2022/03/15 01:25:57;;;;;;;;;15.00;12.00;;;;;10.82;62.14;102174.19;5013378;28;45335;-69
2022/03/15 01:28:24;;;;;;;;;10.00;10.00;;;;;10.88;61.95;102173.72;5017833;28;45426;-69
2022/03/15 01:30:50;;;;;;;;;10.67;10.67;;;;;10.81;62.98;102167.00;5040244;28;45476;-69
2022/03/15 01:33:16;;;;;;;;;13.00;13.00;;;;;10.77;62.46;102165.50;5023990;28;46425;-69
2022/03/15 01:35:42;;;;;;;;;14.00;13.00;;;;;10.80;62.26;102165.28;5039724;28;45222;-69
2022/03/15 01:38:07;;;;;;;;;13.33;11.00;;;;;10.83;62.32;102158.75;5024030;28;45404;-69
2022/03/15 01:40:33;;;;;;;;;11.00;9.33;;;;;10.84;62.46;102165.91;5017385;28;45339;-69
2022/03/15 01:42:58;;;;;;;;;13.67;11.00;;;;;10.78;62.64;102158.22;5020481;28;48072;-69
2022/03/15 01:45:36;;;;;;;;;13.67;13.33;;;;;10.77;62.18;102146.47;5017661;28;45431;-69
2022/03/15 01:48:03;;;;;;;;;13.67;9.33;;;;;10.77;62.26;102148.34;5020800;28;45538;-69
2022/03/15 01:50:28;;;;;;;;;11.33;11.33;;;;;10.80;62.27;102143.56;5021274;28;45536;-69
2022/03/15 01:52:54;;;;;;;;;16.00;10.00;;;;;10.79;62.16;102141.81;5021853;28;45638;-69
2022/03/15 01:55:19;;;;;;;;;19.33;13.00;;;;;10.80;61.57;102132.66;5020908;28;45982;-69
2022/03/15 01:57:45;;;;;;;;;11.00;11.00;;;;;10.80;61.67;102132.66;5019089;28;46512;-68
2022/03/15 02:00:11;;;;;;;;;18.67;13.00;;;;;10.69;63.03;102123.56;5022893;28;45791;-70
2022/03/15 02:02:36;;;;;;;;;13.00;11.67;;;;;10.68;63.40;102133.56;5021873;28;45483;-69
2022/03/15 02:05:02;;;;;;;;;10.00;7.67;;;;;10.69;63.40;102121.72;5016861;28;45387;-69
2022/03/15 02:07:27;;;;;;;;;14.33;12.67;;;;;10.64;63.18;102118.50;5014203;28;46713;-70
2022/03/15 02:09:53;;;;;;;;;11.00;11.00;;;;;10.66;64.15;102129.25;5015566;28;45347;-69
2022/03/15 02:12:18;;;;;;;;;15.67;13.33;;;;;10.69;63.58;102120.84;5023451;28;45334;-70
2022/03/15 02:14:43;;;;;;;;;11.33;11.33;;;;;10.71;62.78;102106.19;5014729;28;45304;-70
2022/03/15 02:17:09;;;;;;;;;13.33;12.00;;;;;10.78;62.85;102112.00;5022386;28;45405;-69
2022/03/15 02:19:36;;;;;;;;;9.33;9.33;;;;;10.74;63.49;102105.94;5011195;28;46524;-70
2022/03/15 02:22:02;;;;;;;;;12.67;10.33;;;;;10.76;63.11;102103.97;5023179;28;46305;-69
2022/03/15 02:24:28;;;;;;;;;11.33;11.33;;;;;10.80;63.07;102100.06;5016940;28;45406;-70
2022/03/15 02:26:54;;;;;;;;;11.00;11.00;;;;;10.80;62.86;102105.50;5029054;28;45230;-69
2022/03/15 02:29:20;;;;;;;;;16.67;12.00;;;;;10.79;62.97;102103.75;5022422;28;45667;-70
2022/03/15 02:31:46;;;;;;;;;12.33;9.33;;;;;10.83;63.86;102090.78;5013887;28;46171;-69
2022/03/15 02:34:12;;;;;;;;;10.00;10.00;;;;;10.84;63.63;102093.38;5021944;28;45258;-69
2022/03/15 02:36:38;;;;;;;;;10.00;10.00;;;;;10.81;63.67;102080.00;5014216;28;46021;-70
2022/03/15 02:39:03;;;;;;;;;11.67;10.00;;;;;10.85;63.68;102073.38;5023605;28;45391;-70
2022/03/15 02:41:28;;;;;;;;;9.00;9.00;;;;;10.87;64.08;102071.41;5015013;28;45318;-68
2022/03/15 02:43:56;;;;;;;;;12.67;9.33;;;;;10.93;64.04;102078.22;5022441;28;45321;-70
2022/03/15 02:46:26;;;;;;;;;9.00;7.33;;;;;10.92;64.76;102074.63;5016286;28;45680;-67
2022/03/15 02:48:52;;;;;;;;;10.00;9.00;;;;;10.86;65.02;102066.09;5023395;28;45507;-69
2022/03/15 02:51:17;;;;;;;;;10.33;9.00;;;;;10.96;64.74;102071.69;5015639;28;46924;-69
2022/03/15 02:53:43;;;;;;;;;8.33;7.33;;;;;10.99;65.46;102076.88;5022833;28;45469;-69
2022/03/15 02:56:11;;;;;;;;;8.00;8.00;;;;;10.98;65.83;102064.25;5018492;28;45323;-69
2022/03/15 02:58:40;;;;;;;;;5.67;5.67;;;;;11.04;65.60;102059.19;5021596;28;45541;-68
2022/03/15 03:01:07;;;;;;;;;9.67;7.33;;;;;11.11;65.08;102060.44;5023073;28;45430;-68
2022/03/15 03:03:34;;;;;;;;;8.00;6.00;;;;;11.16;65.28;102046.50;5021291;28;45386;-68
2022/03/15 03:05:59;;;;;;;;;14.33;11.00;;;;;11.18;65.67;102053.53;5021702;28;45217;-68
2022/03/15 03:08:27;;;;;;;;;8.00;8.00;;;;;11.22;65.70;102054.19;5021168;28;45410;-68
2022/03/15 03:10:56;;;;;;;;;9.00;6.00;;;;;11.25;66.83;102048.50;5015236;28;48002;-69
2022/03/15 03:13:25;;;;;;;;;9.33;7.33;;;;;11.29;66.49;102041.81;5017769;28;45605;-68
2022/03/15 03:15:51;;;;;;;;;6.33;6.33;;;;;11.28;66.48;102040.97;5023272;28;45252;-68
2022/03/15 03:18:16;;;;;;;;;9.67;7.00;;;;;11.32;67.58;102038.88;5018243;28;45438;-69
2022/03/15 03:20:42;;;;;;;;;9.00;9.00;;;;;11.35;68.55;102043.19;5038196;28;47415;-68
2022/03/15 03:23:07;;;;;;;;;11.00;10.00;;;;;11.32;68.77;102030.72;5036121;28;45410;-68
2022/03/15 03:25:36;;;;;;;;;8.33;7.67;;;;;11.41;68.06;102046.28;5011329;28;45277;-68
2022/03/15 03:28:01;;;;;;;;;10.00;7.33;;;;;11.37;68.68;102028.47;5020628;28;45623;-68
2022/03/15 03:30:29;;;;;;;;;6.67;6.67;;;;;11.38;68.86;102030.22;5012977;28;46267;-68
2022/03/15 03:32:54;;;;;;;;;9.00;7.33;;;;;11.44;70.02;102037.88;5023647;28;45829;-69
2022/03/15 03:35:20;;;;;;;;;12.67;8.00;;;;;11.44;68.95;102034.31;5026621;28;45230;-71
2022/03/15 03:37:45;;;;;;;;;11.00;9.00;;;;;11.42;70.11;102034.41;5026414;28;45754;-69
2022/03/15 03:40:11;;;;;;;;;8.00;8.00;;;;;11.42;70.00;102034.41;5034040;28;48263;-69
2022/03/15 03:42:37;;;;;;;;;10.67;9.00;;;;;11.44;69.96;102040.59;5024506;28;45448;-69
2022/03/15 03:45:06;;;;;;;;;8.33;6.67;;;;;11.48;70.50;102035.78;5018831;28;45472;-68
2022/03/15 03:47:31;;;;;;;;;5.67;5.67;;;;;11.39;70.99;102021.06;5024348;28;45622;-69
2022/03/15 03:49:57;;;;;;;;;8.67;8.00;;;;;11.45;71.58;102036.03;5041183;28;48145;-69
2022/03/15 03:52:23;;;;;;;;;11.33;8.33;;;;;11.46;71.51;102038.66;5025538;28;45231;-68
2022/03/15 03:54:48;;;;;;;;;7.00;7.00;;;;;11.50;70.58;102039.25;5021669;28;45396;-69
2022/03/15 03:57:13;;;;;;;;;8.67;6.67;;;;;11.46;72.37;102026.88;5019306;28;45383;-69
2022/03/15 03:59:39;;;;;;;;;7.33;6.00;;;;;11.44;72.21;102035.16;5016755;28;45442;-69
2022/03/15 04:02:04;;;;;;;;;11.67;6.67;;;;;11.46;72.62;102029.59;5026072;28;45254;-69
2022/03/15 04:04:30;;;;;;;;;11.33;11.00;;;;;11.45;72.21;102028.75;5020966;28;45451;-68
2022/03/15 04:06:55;;;;;;;;;7.67;7.67;;;;;11.47;72.64;102029.47;5026178;28;45573;-68
2022/03/15 04:09:23;;;;;;;;;8.33;7.00;;;;;11.42;73.98;102026.25;5023690;28;48212;-68
2022/03/15 04:11:49;;;;;;;;;9.67;8.67;;;;;11.40;72.79;102032.78;5025632;28;45322;-69
2022/03/15 04:14:15;;;;;;;;;11.33;10.00;;;;;11.41;74.00;102027.22;5016594;28;45424;-68
2022/03/15 04:16:42;;;;;;;;;11.00;10.00;;;;;11.42;74.52;102031.69;5024450;28;45730;-68
2022/03/15 04:19:08;;;;;;;;;8.33;8.33;;;;;11.40;73.97;102025.50;5020535;28;46182;-68
2022/03/15 04:21:33;;;;;;;;;14.33;11.00;;;;;11.39;74.53;102010.19;5012959;28;45219;-69
2022/03/15 04:23:59;;;;;;;;;8.33;8.33;;;;;11.40;75.93;102014.63;5023024;28;45311;-68
2022/03/15 04:26:25;;;;;;;;;11.33;11.33;;;;;11.38;76.59;102018.47;5014601;28;45339;-68
2022/03/15 04:28:51;;;;;;;;;10.00;10.00;;;;;11.32;77.24;102017.94;5023643;28;46255;-68
2022/03/15 04:31:17;;;;;;;;;13.33;11.67;;;;;11.27;78.28;102019.31;5030364;28;45423;-69
2022/03/15 04:33:43;;;;;;;;;9.33;6.67;;;;;11.29;77.62;102009.19;5020611;28;45336;-68
2022/03/15 04:36:09;;;;;;;;;10.67;9.00;;;;;11.21;78.39;101995.31;5015662;28;45275;-68
2022/03/15 04:38:35;;;;;;;;;12.33;10.33;;;;;11.24;78.25;102004.13;5024879;28;45662;-68
2022/03/15 04:41:02;;;;;;;;;13.33;11.67;;;;;11.28;78.48;102013.75;5017692;28;45376;-69
2022/03/15 04:43:28;;;;;;;;;20.33;20.33;;;;;11.27;77.98;102005.72;5024187;28;45485;-68
2022/03/15 04:45:53;;;;;;;;;13.67;10.00;;;;;11.32;78.04;102006.22;5017528;28;45577;-71
2022/03/15 04:48:23;;;;;;;;;15.67;14.00;;;;;11.33;77.01;101997.91;5023235;28;46336;-68
2022/03/15 04:50:49;;;;;;;;;9.33;9.33;;;;;11.38;77.53;101992.13;5018066;28;45671;-69
2022/03/15 04:53:15;;;;;;;;;11.00;10.00;;;;;11.32;78.58;101995.34;5023325;28;45531;-68
2022/03/15 04:55:40;;;;;;;;;11.00;8.67;;;;;11.32;79.03;102001.63;5021002;28;45378;-68
2022/03/15 04:58:06;;;;;;;;;10.00;10.00;;;;;11.30;78.79;101994.59;5018137;28;45812;-68
2022/03/15 05:00:31;;;;;;;;;10.33;9.00;;;;;11.30;79.09;102002.75;5016210;28;45267;-68
2022/03/15 05:02:56;;;;;;;;;9.33;9.33;;;;;11.34;78.56;101993.34;5024580;28;45296;-68
2022/03/15 05:05:22;;;;;;;;;7.33;7.33;;;;;11.38;78.37;102000.28;5018267;28;45298;-68
2022/03/15 05:07:48;;;;;;;;;7.33;5.67;;;;;11.36;78.76;101994.09;5022659;28;46882;-68
2022/03/15 05:12:57;;;;;;;;;7.00;7.00;;;;;11.38;78.97;102004.88;5021285;28;45464;-68
2022/03/15 05:15:23;;;;;;;;;10.33;10.00;;;;;11.39;78.88;101998.44;5018063;28;45438;-68
2022/03/15 05:17:49;;;;;;;;;11.00;10.00;;;;;11.42;78.08;101990.00;5019491;28;46192;-67
2022/03/15 05:20:14;;;;;;;;;12.67;11.00;;;;;11.44;78.31;101991.63;5014316;28;46453;-67
2022/03/15 05:22:40;;;;;;;;;15.67;13.33;;;;;11.43;78.65;101989.88;5019254;28;45220;-68
2022/03/15 05:25:06;;;;;;;;;17.33;12.33;;;;;11.42;79.41;101980.00;5039464;28;45192;-68
2022/03/15 05:27:33;;;;;;;;;17.67;14.00;;;;;11.46;78.71;101983.34;5023056;28;46469;-68
2022/03/15 05:30:02;;;;;;;;;14.67;13.67;;;;;11.45;79.12;101987.91;5029320;28;45423;-68
2022/03/15 05:32:28;;;;;;;;;17.00;13.00;;;;;11.47;79.13;101985.09;5038136;28;45198;-69
2022/03/15 05:34:54;;;;;;;;;17.00;12.33;;;;;11.47;78.63;101985.91;5019492;28;45489;-69
2022/03/15 05:37:19;;;;;;;;;16.67;15.00;;;;;11.47;78.81;101991.34;5020143;28;46280;-68
2022/03/15 05:39:44;;;;;;;;;14.33;13.33;;;;;11.48;78.78;101981.34;5020997;28;45331;-68
2022/03/15 05:42:13;;;;;;;;;10.00;6.00;;;;;11.43;79.92;101989.03;5022533;28;45322;-69
2022/03/15 05:44:40;;;;;;;;;16.33;13.33;;;;;11.41;80.04;102002.75;5022542;28;45541;-68
2022/03/15 05:47:06;;;;;;;;;11.33;11.00;;;;;11.33;80.42;101988.88;5020548;28;47134;-68
2022/03/15 05:49:31;;;;;;;;;13.00;12.00;;;;;11.40;80.49;101992.84;5021102;28;45456;-69
2022/03/15 05:51:57;;;;;;;;;18.00;13.67;;;;;11.39;80.36;101993.84;5021042;28;45332;-69
2022/03/15 05:54:22;;;;;;;;;20.33;16.33;;;;;11.38;81.15;101996.69;5020481;28;45582;-68
2022/03/15 05:56:47;;;;;;;;;17.33;17.33;;;;;11.38;81.61;102007.59;5019101;28;47021;-69
2022/03/15 05:59:13;;;;;;;;;21.67;19.00;;;;;11.31;82.50;101999.91;5021240;28;45372;-69
2022/03/15 06:01:39;;;;;;;;;23.00;21.33;;;;;11.32;82.54;102008.94;5022662;28;45475;-68
2022/03/15 06:04:05;;;;;;;;;20.75;19.75;;;;;11.36;82.64;102001.38;5016207;28;45397;-69
2022/03/15 06:06:30;;;;;;;;;29.67;23.00;;;;;11.35;82.92;102007.81;5037913;28;45410;-68
2022/03/15 06:08:56;;;;;;;;;17.67;16.67;;;;;11.35;82.90;102003.25;5016920;28;45296;-67
2022/03/15 06:11:21;;;;;;;;;17.75;17.75;;;;;11.37;82.54;102009.44;5020746;28;45518;-68
2022/03/15 06:13:47;;;;;;;;;18.33;17.33;;;;;11.39;82.50;102004.75;5018771;28;45384;-69
2022/03/15 06:16:13;;;;;;;;;23.33;21.67;;;;;11.41;82.79;102010.03;5010299;28;45469;-68
2022/03/15 06:18:39;;;;;;;;;18.33;17.33;;;;;11.40;82.46;102011.91;5018386;28;45457;-68
2022/03/15 06:21:04;;;;;;;;;17.67;17.67;;;;;11.45;81.97;102009.69;5012080;28;45365;-68
2022/03/15 06:23:30;;;;;;;;;20.00;17.25;;;;;11.45;81.97;102009.69;5020848;28;45425;-68
2022/03/15 06:25:55;;;;;;;;;24.33;18.33;;;;;11.44;81.81;102013.41;5012248;28;46327;-68
2022/03/15 06:28:21;;;;;;;;;19.33;19.00;;;;;11.45;81.67;102014.25;5021771;28;45636;-68
2022/03/15 06:30:46;;;;;;;;;32.00;29.75;;;;;11.45;81.51;102019.72;5013754;28;45314;-68
2022/03/15 06:33:12;;;;;;;;;22.25;21.50;;;;;11.43;82.15;102003.50;5022883;28;45187;-68
2022/03/15 06:35:38;;;;;;;;;22.67;22.00;;;;;11.43;82.05;102003.50;5014301;28;46556;-68
2022/03/15 06:38:03;;;;;;;;;25.00;20.25;;;;;11.40;81.83;102000.13;5022292;28;45511;-68
2022/03/15 06:40:32;;;;;;;;;25.67;22.67;;;;;11.36;82.34;102004.97;5015258;28;45170;-68
2022/03/15 06:42:58;;;;;;;;;23.00;20.33;;;;;11.39;82.61;101999.31;5022787;28;45457;-68
2022/03/15 06:45:23;;;;;;;;;18.33;16.67;;;;;11.46;82.03;102007.84;5014573;28;45961;-68
2022/03/15 06:47:49;;;;;;;;;21.67;19.00;;;;;11.49;81.69;102004.84;5020739;28;45346;-69
2022/03/15 06:50:15;;;;;;;;;28.00;23.50;;;;;11.50;81.36;102010.19;5017840;28;45496;-68
2022/03/15 06:52:44;;;;;;;;;21.00;20.67;;;;;11.50;81.76;102004.72;5021054;28;45486;-68
2022/03/15 06:55:11;;;;;;;;;22.00;21.00;;;;;11.44;81.69;101997.06;5033821;28;48318;-68
2022/03/15 06:57:37;;;;;;;;;23.67;22.33;;;;;11.47;81.51;102013.13;5015229;28;45474;-68
2022/03/15 07:00:05;;;;;;;;;19.67;18.67;;;;;11.46;81.58;102010.56;5013626;28;45387;-68
2022/03/15 07:02:30;;;;;;;;;23.00;21.67;;;;;11.44;82.21;102002.50;5020842;28;45457;-68
2022/03/15 07:04:56;;;;;;;;;21.67;18.67;;;;;11.46;81.83;101984.22;5020642;28;48140;-68
2022/03/15 07:07:21;;;;;;;;;22.67;22.67;;;;;11.52;81.87;101988.28;5020342;28;45328;-69
2022/03/15 07:09:47;;;;;;;;;17.00;16.50;;;;;11.52;82.21;101993.72;5011776;28;45439;-67
2022/03/15 07:12:12;;;;;;;;;26.50;26.00;;;;;11.57;81.77;101992.34;5022720;28;45204;-68
2022/03/15 07:14:38;;;;;;;;;22.00;20.25;;;;;11.61;81.56;101987.53;5015075;28;46692;-67
2022/03/15 07:17:04;;;;;;;;;30.75;28.25;;;;;11.63;81.01;102000.03;5012585;28;45521;-67
2022/03/15 07:19:29;;;;;;;;;26.50;23.50;;;;;11.60;81.50;102008.44;5017894;28;45271;-68
2022/03/15 07:21:55;;;;;;;;;24.50;23.75;;;;;11.51;81.28;101995.59;5022473;28;45177;-68
2022/03/15 07:24:20;;;;;;;;;20.33;20.33;;;;;11.55;81.56;101998.91;5020106;28;46283;-69
2022/03/15 07:26:46;;;;;;;;;30.25;27.25;;;;;11.56;81.76;102001.50;5010082;28;45268;-68
2022/03/15 07:29:11;;;;;;;;;22.25;20.25;;;;;11.60;81.49;102015.75;5018882;28;45579;-69
2022/03/15 07:31:38;;;;;;;;;33.25;23.75;;;;;11.65;81.78;102010.78;5013023;28;45614;-69
2022/03/15 07:34:03;;;;;;;;;27.25;24.00;;;;;11.67;81.06;102008.81;5021033;28;46260;-69
2022/03/15 07:36:29;;;;;;;;;24.75;24.25;;;;;11.70;80.62;102008.56;5012620;28;45465;-69
2022/03/15 07:38:55;;;;;;;;;27.50;27.00;;;;;11.69;81.30;102018.56;5009926;28;45303;-68
2022/03/15 07:41:23;;;;;;;;;31.25;26.50;;;;;11.71;80.75;102023.91;5018887;28;45350;-71
2022/03/15 07:43:49;;;;;;;;;25.00;25.00;;;;;11.76;80.53;102012.69;5019329;28;47299;-69
2022/03/15 07:46:14;;;;;;;;;19.67;17.67;;;;;11.76;80.17;102012.69;5033804;28;45408;-70
2022/03/15 07:48:40;;;;;;;;;28.75;25.00;;;;;11.75;79.75;101998.22;5015440;28;45306;-70
2022/03/15 07:51:05;;;;;;;;;30.50;24.75;;;;;11.76;79.92;101999.06;5015535;28;45264;-70
2022/03/15 07:53:30;;;;;;;;;27.75;24.00;;;;;11.76;79.87;101994.50;5019567;28;45447;-70
2022/03/15 07:56:00;;;;;;;;;28.25;24.50;;;;;11.82;79.15;101995.84;5013850;28;45252;-69
2022/03/15 07:58:27;;;;;;;;;25.50;25.00;;;;;11.82;78.55;101993.97;5019427;28;45351;-69
2022/03/15 08:00:56;;;;;;;;;32.00;29.75;;;;;11.81;79.70;101988.66;5014971;28;45212;-69
2022/03/15 08:03:22;;;;;;;;;31.25;24.75;;;;;11.84;79.75;101985.66;5018971;28;47051;-69
2022/03/15 08:05:48;;;;;;;;;28.75;27.50;;;;;11.84;80.62;101993.84;5014172;28;45414;-69
2022/03/15 08:08:15;;;;;;;;;32.25;27.75;;;;;11.79;81.12;101998.81;5020846;28;45327;-69
2022/03/15 08:10:40;;;;;;;;;34.00;30.00;;;;;11.79;81.38;101988.78;5013457;28;45305;-69
2022/03/15 08:13:06;;;;;;;;;31.75;27.00;;;;;11.86;80.91;101991.84;5017816;28;45436;-69
2022/03/15 08:15:31;;;;;;;;;28.33;24.00;;;;;11.85;80.95;101991.00;5009039;28;45839;-69
2022/03/15 08:17:56;;;;;;;;;30.00;25.67;;;;;11.86;81.13;101991.84;5015972;28;45472;-70
2022/03/15 08:20:23;;;;;;;;;30.25;27.25;;;;;11.91;80.59;101989.63;5012150;28;45371;-69
2022/03/15 08:22:48;;;;;;;;;33.00;26.50;;;;;11.90;80.78;101987.91;5019156;28;45478;-69
2022/03/15 08:25:14;;;;;;;;;32.00;27.00;;;;;11.92;80.11;101991.34;5017347;28;45484;-69
2022/03/15 08:27:39;;;;;;;;;24.00;23.75;;;;;11.94;80.36;101995.69;5021237;28;45316;-69
2022/03/15 08:30:06;;;;;;;;;31.75;30.50;;;;;11.87;80.79;101988.16;5024158;28;45578;-71
2022/03/15 08:32:31;;;;;;;;;38.00;31.00;;;;;11.75;81.15;101990.03;5024199;28;45342;-69
2022/03/15 08:34:56;;;;;;;;;32.75;28.75;;;;;11.67;82.33;101993.34;5019907;28;45432;-69
2022/03/15 08:37:22;;;;;;;;;32.50;28.75;;;;;11.59;82.78;101998.56;5020883;28;46003;-68
2022/03/15 08:39:47;;;;;;;;;27.00;27.00;;;;;11.60;82.74;102003.00;5021337;28;45358;-69
2022/03/15 08:42:14;;;;;;;;;34.25;31.75;;;;;11.69;83.13;102004.97;5019730;28;48254;-70
2022/03/15 08:44:39;;;;;;;;;31.50;24.25;;;;;11.70;82.66;101990.38;5013583;28;45456;-68
2022/03/15 08:47:05;;;;;;;;;33.25;30.75;;;;;11.71;82.17;101997.53;5019834;28;45371;-69
2022/03/15 08:49:31;;;;;;;;;33.00;30.00;;;;;11.73;82.69;101996.56;5022692;28;45449;-69
2022/03/15 08:51:57;;;;;;;;;35.25;33.50;;;;;11.77;81.90;101998.06;5021266;28;46133;-71
2022/03/15 08:54:22;;;;;;;;;35.50;30.00;;;;;11.75;81.76;102000.94;5015423;28;45410;-69
2022/03/15 08:56:48;;;;;;;;;26.00;23.75;;;;;11.73;81.78;102007.44;5037045;28;45389;-69
2022/03/15 08:59:16;;;;;;;;;32.75;30.50;;;;;11.61;82.05;102010.19;5013016;28;47161;-69
2022/03/15 09:01:42;;;;;;;;;25.75;25.00;;;;;11.64;82.67;102006.34;5024103;28;45632;-69
2022/03/15 09:04:09;;;;;;;;;33.75;27.00;;;;;11.73;81.82;101999.28;5017256;28;45704;-69
2022/03/15 09:06:35;;;;;;;;;28.50;23.00;;;;;11.83;81.59;102006.63;5024520;28;45252;-69
2022/03/15 09:09:01;;;;;;;;;29.00;26.00;;;;;11.88;80.94;102014.41;5020165;28;45287;-69
2022/03/15 09:11:28;;;;;;;;;34.75;31.00;;;;;11.85;80.74;102023.66;5024414;28;45510;-69
2022/03/15 09:13:54;;;;;;;;;33.50;31.00;;;;;11.79;81.20;102028.75;5019252;28;45305;-68
2022/03/15 09:16:20;;;;;;;;;35.50;28.50;;;;;11.75;81.49;102020.00;5012694;28;45294;-68
2022/03/15 09:18:46;;;;;;;;;42.50;33.00;;;;;11.75;82.21;102010.94;5022116;28;45351;-68
2022/03/15 09:21:12;;;;;;;;;37.00;34.00;;;;;11.71;82.56;102019.31;5013478;28;45490;-68
2022/03/15 09:23:38;;;;;;;;;37.75;34.50;;;;;11.68;82.99;102022.31;5022147;28;45847;-69
2022/03/15 09:26:04;;;;;;;;;42.50;36.00;;;;;11.70;83.16;102012.13;5014346;28;45339;-69
2022/03/15 09:28:29;;;;;;;;;33.50;31.50;;;;;11.79;83.48;102006.97;5023921;28;45479;-68
2022/03/15 09:30:54;;;;;;;;;36.50;31.75;;;;;11.89;82.64;102018.84;5024060;28;46364;-69
2022/03/15 09:33:20;;;;;;;;;34.25;32.00;;;;;11.95;82.36;102024.66;5023947;28;45415;-69
2022/03/15 09:35:45;;;;;;;;;31.25;28.00;;;;;11.96;81.95;102012.78;5017068;28;45263;-69
2022/03/15 09:38:11;;;;;;;;;33.00;29.25;;;;;12.04;81.73;102010.28;5024300;28;45272;-69
2022/03/15 09:40:37;;;;;;;;;26.00;23.25;;;;;12.10;80.59;102003.47;5033210;28;47114;-69
2022/03/15 09:43:05;;;;;;;;;35.25;30.25;;;;;12.23;80.51;102004.16;5023848;28;45415;-68
2022/03/15 09:45:33;;;;;;;;;28.75;26.75;;;;;12.27;80.25;102000.16;5018988;28;45292;-69
2022/03/15 09:48:02;;;;;;;;;31.25;27.50;;;;;12.33;79.44;101993.34;5015430;28;45372;-69
2022/03/15 09:50:28;;;;;;;;;33.00;31.75;;;;;12.36;80.45;102002.13;5013887;28;48223;-69
2022/03/15 09:52:56;;;;;;;;;34.00;32.25;;;;;12.34;80.45;101997.81;5023601;28;45414;-68
2022/03/15 09:55:22;;;;;;;;;30.75;28.25;;;;;12.33;80.73;101988.78;5015426;28;45565;-69
2022/03/15 09:57:48;;;;;;;;;42.75;35.25;;;;;12.42;80.36;101987.97;5023470;28;45413;-69
2022/03/15 10:00:16;;;;;;;;;39.25;34.50;;;;;12.48;79.89;101979.31;5013698;28;47328;-69
2022/03/15 10:02:43;;;;;;;;;44.00;34.75;;;;;12.56;80.02;101973.19;5023463;28;45485;-69
2022/03/15 10:05:09;;;;;;;;;48.25;40.00;;;;;12.58;80.23;101978.47;5035641;28;45259;-68
2022/03/15 10:07:36;;;;;;;;;45.50;35.00;;;;;12.61;79.35;101990.00;5015154;28;45508;-68
2022/03/15 10:10:04;;;;;;;;;40.75;35.50;;;;;12.57;79.48;101987.66;5018016;28;47028;-68
2022/03/15 10:12:30;;;;;;;;;51.50;40.75;;;;;12.54;79.62;101986.09;5013471;28;45445;-69
2022/03/15 10:14:56;;;;;;;;;47.25;37.00;;;;;12.46;80.55;101980.41;5031811;28;45636;-69
2022/03/15 10:17:22;;;;;;;;;41.50;36.25;;;;;12.30;81.44;101986.28;5023616;28;45299;-69
2022/03/15 10:19:56;;;;;;;;;31.75;29.00;;;;;12.28;80.91;101988.28;5014206;28;47199;-69
2022/03/15 10:22:23;;;;;;;;;37.00;33.00;;;;;12.36;81.11;101982.19;5016256;28;45343;-69
2022/03/15 10:24:49;;;;;;;;;36.00;33.00;;;;;12.32;81.07;101987.03;5016528;28;45339;-69
2022/03/15 10:27:15;;;;;;;;;39.25;34.25;;;;;12.36;80.92;101983.03;5017476;28;45426;-69
2022/03/15 10:29:43;;;;;;;;;40.50;34.50;;;;;12.25;80.94;101988.56;5020206;28;45438;-69
2022/03/15 10:32:09;;;;;;;;;35.25;32.75;;;;;12.25;81.11;101977.66;5016129;28;45406;-69
2022/03/15 10:34:34;;;;;;;;;36.50;34.25;;;;;12.25;80.91;101988.56;5020682;28;45541;-71
2022/03/15 10:37:00;;;;;;;;;45.50;34.75;;;;;12.06;81.41;101981.03;5038233;28;45321;-69
2022/03/15 10:39:26;;;;;;;;;43.75;36.25;;;;;11.97;81.85;101978.25;5021134;28;45397;-69
2022/03/15 10:41:55;;;;;;;;;48.50;38.75;;;;;12.00;82.49;101977.97;5021991;28;45319;-69
2022/03/15 10:44:26;;;;;;;;;40.75;35.50;;;;;12.00;82.97;101976.09;5020877;28;45425;-68
2022/03/15 10:47:06;;;;;;;;;38.75;35.25;;;;;12.08;81.96;101976.34;5018279;28;45233;-68
2022/03/15 10:49:54;;;;;;;;;40.50;36.50;;;;;12.13;81.86;101972.38;5013397;28;45495;-69
2022/03/15 10:52:35;;;;;;;;;39.25;33.50;;;;;12.20;81.60;101970.88;5009181;28;45272;-69
2022/03/15 10:55:19;;;;;;;;;42.50;36.75;;;;;12.25;81.14;101960.44;5012648;28;45430;-68
2022/03/15 10:57:48;;;;;;;;;41.75;37.25;;;;;12.18;81.32;101964.66;5020616;28;45668;-68
2022/03/15 11:00:15;;;;;;;;;42.00;34.00;;;;;12.15;81.79;101964.91;5020759;28;46653;-68
2022/03/15 11:02:47;;;;;;;;;49.75;39.50;;;;;12.18;82.22;101976.44;5022274;28;45275;-69
2022/03/15 11:05:24;;;;;;;;;43.50;36.00;;;;;12.07;82.23;101980.06;5014948;28;45411;-69
2022/03/15 11:07:49;;;;;;;;;49.75;42.00;;;;;12.06;82.11;101969.28;5022735;28;45204;-68
2022/03/15 11:10:15;;;;;;;;;47.25;39.00;;;;;12.11;82.62;101969.78;5022765;28;45450;-68